createdAt,value
2022-09-07T00:01:48.506Z,100325.97
2022-09-07T00:04:14.751Z,100327.13
2022-09-07T00:06:40.947Z,100329.06
2022-09-07T00:09:07.137Z,100337.13
2022-09-07T00:11:33.294Z,100337.13
2022-09-07T00:13:59.444Z,100338.94
2022-09-07T00:16:25.737Z,100340.91
2022-09-07T00:18:51.960Z,100338.94
2022-09-07T00:21:18.107Z,100344.22
2022-09-07T00:23:44.316Z,100341.06
2022-09-07T00:26:10.480Z,100338.00
2022-09-07T00:28:36.671Z,100333.84
2022-09-07T00:31:02.877Z,100329.50
2022-09-07T00:33:29.102Z,100324.63
2022-09-07T00:35:55.268Z,100320.31
2022-09-07T00:38:21.473Z,100308.03
2022-09-07T00:40:47.670Z,100305.38
2022-09-07T00:43:13.833Z,100313.31
2022-09-07T00:45:40.001Z,100298.44
2022-09-07T00:48:06.168Z,100290.63
2022-09-07T00:50:32.344Z,100294.78
2022-09-07T00:52:58.532Z,100283.53
2022-09-07T00:55:24.706Z,100275.44
2022-09-07T00:57:50.882Z,100277.94
2022-09-07T01:00:17.031Z,100275.16
2022-09-07T01:02:43.278Z,100276.25
2022-09-07T01:05:09.693Z,100274.88
2022-09-07T01:07:35.942Z,100277.66
2022-09-07T01:10:02.102Z,100284.03
2022-09-07T01:12:28.275Z,100303.13
2022-09-07T01:14:54.461Z,100320.06
2022-09-07T01:17:23.404Z,100331.44
2022-09-07T01:19:49.593Z,100339.28
2022-09-07T01:22:15.743Z,100339.13
2022-09-07T01:24:41.948Z,100340.34
2022-09-07T01:27:08.100Z,100346.75
2022-09-07T01:29:34.263Z,100342.69
2022-09-07T01:32:00.428Z,100338.50
2022-09-07T01:34:26.607Z,100346.81
2022-09-07T01:36:52.782Z,100360.06
2022-09-07T01:39:18.933Z,100368.56
2022-09-07T01:41:45.123Z,100371.09
2022-09-07T01:44:11.275Z,100372.50
2022-09-07T01:46:37.559Z,100371.25
2022-09-07T01:49:03.802Z,100390.22
2022-09-07T01:51:29.961Z,100375.91
2022-09-07T01:53:56.126Z,100372.16
2022-09-07T01:56:22.295Z,100377.31
2022-09-07T01:58:48.481Z,100387.78
2022-09-07T02:01:14.662Z,100401.34
2022-09-07T02:03:40.886Z,100392.69
2022-09-07T02:06:07.033Z,100407.09
2022-09-07T02:08:33.167Z,100410.81
2022-09-07T02:10:59.348Z,100413.31
2022-09-07T02:13:25.505Z,100419.75
2022-09-07T02:15:51.757Z,100425.63
2022-09-07T02:18:18.024Z,100432.25
2022-09-07T02:20:44.198Z,100427.59
2022-09-07T02:23:10.358Z,100394.84
2022-09-07T02:25:36.518Z,100382.78
2022-09-07T02:28:02.692Z,100369.72
2022-09-07T02:30:28.857Z,100364.53
2022-09-07T02:32:55.010Z,100361.66
2022-09-07T02:35:21.256Z,100360.09
2022-09-07T02:37:47.426Z,100365.50
2022-09-07T02:40:13.630Z,100377.06
2022-09-07T02:42:39.829Z,100385.47
2022-09-07T02:45:05.989Z,100382.84
2022-09-07T02:47:32.174Z,100359.63
2022-09-07T02:49:58.354Z,100356.16
2022-09-07T02:52:24.489Z,100357.69
2022-09-07T02:54:50.670Z,100349.78
2022-09-07T02:57:16.829Z,100354.34
2022-09-07T02:59:42.966Z,100340.41
2022-09-07T03:02:09.177Z,100342.38
2022-09-07T03:04:35.345Z,100340.66
2022-09-07T03:07:01.554Z,100345.28
2022-09-07T03:09:27.735Z,100344.56
2022-09-07T03:11:53.890Z,100348.13
2022-09-07T03:14:20.077Z,100351.03
2022-09-07T03:16:46.236Z,100343.44
2022-09-07T03:19:12.390Z,100341.88
2022-09-07T03:21:38.602Z,100342.97
2022-09-07T03:24:04.734Z,100344.78
2022-09-07T03:26:30.911Z,100347.53
2022-09-07T03:28:57.125Z,100352.13
2022-09-07T03:31:23.325Z,100350.06
2022-09-07T03:33:49.522Z,100347.66
2022-09-07T03:36:15.705Z,100345.84
2022-09-07T03:38:41.874Z,100348.16
2022-09-07T03:41:08.039Z,100353.94
2022-09-07T03:43:34.239Z,100352.91
2022-09-07T03:46:00.452Z,100362.16
2022-09-07T03:48:26.733Z,100362.66
2022-09-07T03:50:53.219Z,100359.75
2022-09-07T03:53:19.403Z,100357.38
2022-09-07T03:55:45.562Z,100360.00
2022-09-07T03:58:11.760Z,100366.75
2022-09-07T04:00:37.932Z,100372.88
2022-09-07T04:03:04.103Z,100358.09
2022-09-07T04:05:30.270Z,100368.56
2022-09-07T04:07:56.467Z,100362.56
2022-09-07T04:10:22.637Z,100373.13
2022-09-07T04:12:48.819Z,100370.47
2022-09-07T04:15:14.970Z,100373.59
2022-09-07T04:17:41.142Z,100370.97
2022-09-07T04:20:07.309Z,100371.78
2022-09-07T04:22:33.500Z,100369.03
2022-09-07T04:24:59.709Z,100369.25
2022-09-07T04:27:25.901Z,100367.34
2022-09-07T04:29:52.071Z,100357.75
2022-09-07T04:32:18.456Z,100366.41
2022-09-07T04:34:44.661Z,100356.53
2022-09-07T04:37:10.818Z,100353.41
2022-09-07T04:39:37.000Z,100365.81
2022-09-07T04:42:03.268Z,100367.84
2022-09-07T04:44:29.455Z,100369.00
2022-09-07T04:46:55.626Z,100369.25
2022-09-07T04:49:21.777Z,100374.06
2022-09-07T04:51:47.953Z,100377.69
2022-09-07T04:54:14.144Z,100372.50
2022-09-07T04:56:40.306Z,100379.97
2022-09-07T04:59:06.492Z,100383.56
2022-09-07T05:01:32.690Z,100378.28
2022-09-07T05:03:58.896Z,100375.75
2022-09-07T05:06:25.083Z,100387.28
2022-09-07T05:08:51.230Z,100388.22
2022-09-07T05:11:17.388Z,100397.38
2022-09-07T05:13:43.570Z,100391.59
2022-09-07T05:16:09.867Z,100391.59
2022-09-07T05:18:36.116Z,100395.31
2022-09-07T05:21:02.276Z,100397.09
2022-09-07T05:23:28.458Z,100397.22
2022-09-07T05:25:54.616Z,100408.03
2022-09-07T05:28:20.768Z,100406.22
2022-09-07T05:36:19.297Z,100405.63
2022-09-07T05:38:45.502Z,100409.47
2022-09-07T05:41:11.672Z,100407.19
2022-09-07T05:46:23.957Z,100422.19
2022-09-07T05:48:50.153Z,100422.44
2022-09-07T05:51:16.306Z,100427.25
2022-09-07T05:53:42.500Z,100426.88
2022-09-07T05:56:08.652Z,100419.41
2022-09-07T05:58:34.836Z,100419.38
2022-09-07T06:01:01.019Z,100421.78
2022-09-07T06:03:27.203Z,100430.66
2022-09-07T06:05:53.382Z,100433.25
2022-09-07T06:08:19.582Z,100430.31
2022-09-07T06:10:45.819Z,100419.22
2022-09-07T06:13:12.054Z,100427.44
2022-09-07T06:15:38.277Z,100425.63
2022-09-07T06:18:04.458Z,100420.91
2022-09-07T06:20:30.684Z,100413.09
2022-09-07T06:22:56.849Z,100422.84
2022-09-07T06:25:23.052Z,100427.59
2022-09-07T06:27:49.244Z,100432.25
2022-09-07T06:30:15.407Z,100428.25
2022-09-07T06:35:12.668Z,100437.59
2022-09-07T06:37:38.848Z,100434.66
2022-09-07T06:40:05.121Z,100437.06
2022-09-07T06:42:31.343Z,100431.72
2022-09-07T06:44:57.578Z,100434.19
2022-09-07T06:47:23.767Z,100427.31
2022-09-07T06:49:49.921Z,100434.59
2022-09-07T06:52:16.154Z,100430.72
2022-09-07T06:57:23.906Z,100437.09
2022-09-07T06:59:50.085Z,100441.66
2022-09-07T07:02:16.240Z,100435.75
2022-09-07T07:04:42.418Z,100442.31
2022-09-07T07:07:08.567Z,100430.72
2022-09-07T07:09:34.735Z,100433.88
2022-09-07T07:12:00.921Z,100431.72
2022-09-07T07:14:28.198Z,100435.72
2022-09-07T07:16:57.177Z,100437.50
2022-09-07T07:19:23.346Z,100437.09
2022-09-07T07:22:14.008Z,100432.69
2022-09-07T07:24:35.703Z,100437.56
2022-09-07T07:27:01.886Z,100437.25
2022-09-07T07:29:28.431Z,100429.72
2022-09-07T07:31:54.646Z,100434.94
2022-09-07T07:34:20.800Z,100425.84
2022-09-07T07:36:47.006Z,100432.72
2022-09-07T07:42:03.010Z,100432.38
2022-09-07T07:44:31.126Z,100431.44
2022-09-07T07:46:57.426Z,100438.88
2022-09-07T07:49:23.613Z,100428.56
2022-09-07T07:54:35.915Z,100443.25
2022-09-07T07:57:02.054Z,100438.56
2022-09-07T07:59:28.180Z,100437.63
2022-09-07T08:01:54.604Z,100438.84
2022-09-07T08:04:20.820Z,100445.25
2022-09-07T08:06:46.948Z,100454.91
2022-09-07T08:09:13.092Z,100455.25
2022-09-07T08:11:39.203Z,100455.44
2022-09-07T08:14:05.323Z,100455.75
2022-09-07T08:16:31.509Z,100453.25
2022-09-07T08:18:57.704Z,100457.16
2022-09-07T08:21:23.847Z,100457.19
2022-09-07T08:23:49.994Z,100467.13
2022-09-07T08:26:16.119Z,100462.34
2022-09-07T08:28:42.265Z,100460.09
2022-09-07T08:31:08.456Z,100466.44
2022-09-07T08:33:34.626Z,100474.13
2022-09-07T08:36:00.736Z,100469.78
2022-09-07T08:38:26.885Z,100462.09
2022-09-07T08:40:53.020Z,100477.13
2022-09-07T08:43:19.128Z,100474.06
2022-09-07T08:45:45.280Z,100474.88
2022-09-07T08:48:11.477Z,100474.53
2022-09-07T08:50:37.594Z,100475.25
2022-09-07T08:53:03.740Z,100474.66
2022-09-07T08:55:29.881Z,100476.25
2022-09-07T08:57:56.035Z,100477.75
2022-09-07T09:00:22.162Z,100477.25
2022-09-07T09:03:28.599Z,100474.81
2022-09-07T09:05:34.623Z,100474.88
2022-09-07T09:08:00.836Z,100472.56
2022-09-07T09:10:26.976Z,100474.03
2022-09-07T09:12:53.127Z,100473.81
2022-09-07T09:15:19.240Z,100469.25
2022-09-07T09:17:45.380Z,100464.84
2022-09-07T09:20:11.508Z,100469.31
2022-09-07T09:22:38.451Z,100462.97
2022-09-07T09:25:04.859Z,100473.16
2022-09-07T09:27:30.973Z,100465.31
2022-09-07T09:29:57.111Z,100468.59
2022-09-07T09:32:23.256Z,100454.78
2022-09-07T09:34:50.454Z,100461.59
2022-09-07T09:37:16.618Z,100460.25
2022-09-07T09:39:42.794Z,100466.84
2022-09-07T09:42:08.975Z,100455.06
2022-09-07T09:44:35.110Z,100463.88
2022-09-07T09:49:47.355Z,100449.09
2022-09-07T09:52:31.266Z,100458.06
2022-09-07T09:55:17.148Z,100453.91
2022-09-07T09:59:04.669Z,100451.59
2022-09-07T10:00:32.280Z,100445.03
2022-09-07T10:05:44.813Z,100438.41
2022-09-07T10:08:10.974Z,100436.09
2022-09-07T10:10:37.110Z,100430.59
2022-09-07T10:13:03.278Z,100438.97
2022-09-07T10:15:29.457Z,100431.41
2022-09-07T10:17:55.638Z,100420.69
2022-09-07T10:20:21.787Z,100415.75
2022-09-07T10:22:51.401Z,100409.84
2022-09-07T10:25:17.751Z,100413.44
2022-09-07T10:27:43.868Z,100405.59
2022-09-07T10:30:09.993Z,100403.16
2022-09-07T10:32:36.149Z,100405.44
2022-09-07T10:35:02.277Z,100391.22
2022-09-07T10:37:28.658Z,100382.97
2022-09-07T10:39:59.636Z,100389.06
2022-09-07T10:42:26.504Z,100384.00
2022-09-07T10:44:52.629Z,100381.78
2022-09-07T10:47:18.794Z,100387.25
2022-09-07T10:52:31.081Z,100379.44
2022-09-07T10:54:57.220Z,100374.72
2022-09-07T10:57:23.344Z,100370.75
2022-09-07T11:02:35.636Z,100376.78
2022-09-07T11:05:01.829Z,100374.59
2022-09-07T11:07:27.970Z,100377.03
2022-09-07T11:09:54.118Z,100374.75
2022-09-07T11:12:22.846Z,100376.41
2022-09-07T11:14:50.995Z,100378.84
2022-09-07T11:17:20.177Z,100377.31
2022-09-07T11:19:46.338Z,100378.59
2022-09-07T11:22:14.524Z,100381.94
2022-09-07T11:24:40.713Z,100371.72
2022-09-07T11:27:06.848Z,100377.09
2022-09-07T11:29:33.068Z,100367.91
2022-09-07T11:31:59.219Z,100365.47
2022-09-07T11:34:25.416Z,100354.72
2022-09-07T11:36:51.691Z,100350.88
2022-09-07T11:39:17.839Z,100345.56
2022-09-07T11:41:43.986Z,100346.97
2022-09-07T11:44:10.147Z,100339.91
2022-09-07T11:46:36.375Z,100332.72
2022-09-07T11:49:04.519Z,100334.69
2022-09-07T11:51:30.876Z,100325.69
2022-09-07T11:53:57.004Z,100327.06
2022-09-07T11:56:23.127Z,100336.72
2022-09-07T11:58:49.280Z,100328.53
2022-09-07T12:01:15.469Z,100328.66
2022-09-07T12:03:41.685Z,100322.53
2022-09-07T12:06:07.935Z,100323.31
2022-09-07T12:08:34.077Z,100321.03
2022-09-07T12:11:00.218Z,100316.03
2022-09-07T12:13:26.333Z,100320.50
2022-09-07T12:15:52.535Z,100312.94
2022-09-07T12:18:18.776Z,100310.41
2022-09-07T12:20:44.908Z,100317.94
2022-09-07T12:23:11.068Z,100304.81
2022-09-07T12:25:37.237Z,100307.25
2022-09-07T12:28:03.360Z,100310.13
2022-09-07T12:30:29.509Z,100295.00
2022-09-07T12:32:58.388Z,100295.44
2022-09-07T12:35:27.161Z,100299.16
2022-09-07T12:37:56.272Z,100293.69
2022-09-07T12:40:22.401Z,100288.44
2022-09-07T12:45:30.411Z,100290.97
2022-09-07T12:47:56.558Z,100289.56
2022-09-07T12:50:24.924Z,100287.91
2022-09-07T12:52:51.144Z,100283.88
2022-09-07T12:55:27.896Z,100284.75
2022-09-07T12:57:54.795Z,100290.38
2022-09-07T13:00:20.926Z,100288.69
2022-09-07T13:02:47.100Z,100288.50
2022-09-07T13:05:13.296Z,100294.22
2022-09-07T13:07:39.448Z,100293.22
2022-09-07T13:10:08.332Z,100279.63
2022-09-07T13:15:24.234Z,100268.00
2022-09-07T13:17:50.494Z,100272.47
2022-09-07T13:20:16.637Z,100266.97
2022-09-07T13:22:42.752Z,100272.78
2022-09-07T13:25:08.946Z,100264.88
2022-09-07T13:27:35.094Z,100276.41
2022-09-07T13:30:01.305Z,100268.09
2022-09-07T13:35:13.597Z,100265.66
2022-09-07T13:37:39.720Z,100267.16
2022-09-07T13:40:05.918Z,100260.13
2022-09-07T13:42:32.061Z,100263.03
2022-09-07T13:44:58.202Z,100256.75
2022-09-07T13:47:24.342Z,100269.78
2022-09-07T13:49:55.583Z,100265.56
2022-09-07T13:52:22.190Z,100250.91
2022-09-07T13:54:48.555Z,100250.00
2022-09-07T13:57:14.761Z,100254.75
2022-09-07T13:59:40.910Z,100243.84
2022-09-07T14:02:07.092Z,100241.91
2022-09-07T14:04:33.282Z,100246.34
2022-09-07T14:06:59.430Z,100242.13
2022-09-07T14:09:25.680Z,100244.75
2022-09-07T14:11:51.842Z,100253.28
2022-09-07T14:14:18.020Z,100248.22
2022-09-07T14:16:44.210Z,100250.75
2022-09-07T14:19:10.371Z,100246.22
2022-09-07T14:21:36.522Z,100250.91
2022-09-07T14:24:02.663Z,100250.47
2022-09-07T14:26:28.798Z,100250.78
2022-09-07T14:28:54.947Z,100242.47
2022-09-07T14:31:21.173Z,100244.72
2022-09-07T14:33:47.401Z,100247.66
2022-09-07T14:36:39.533Z,100234.06
2022-09-07T14:39:06.723Z,100233.06
2022-09-07T14:41:32.884Z,100232.41
2022-09-07T14:43:59.007Z,100223.72
2022-09-07T14:46:25.237Z,100211.66
2022-09-07T14:48:51.437Z,100197.22
2022-09-07T14:51:32.390Z,100191.31
2022-09-07T14:54:01.578Z,100195.28
2022-09-07T14:56:27.917Z,100192.53
2022-09-07T14:58:54.060Z,100197.59
2022-09-07T15:04:06.431Z,100198.84
2022-09-07T15:09:18.791Z,100193.00
2022-09-07T15:11:44.909Z,100199.63
2022-09-07T15:14:11.046Z,100197.47
2022-09-07T15:16:37.248Z,100194.03
2022-09-07T15:19:03.384Z,100191.97
2022-09-07T15:21:29.520Z,100193.09
2022-09-07T15:23:55.679Z,100194.88
2022-09-07T15:29:08.527Z,100193.03
2022-09-07T15:31:44.654Z,100189.69
2022-09-07T15:34:16.189Z,100193.22
2022-09-07T15:36:42.350Z,100183.16
2022-09-07T15:39:08.479Z,100189.00
2022-09-07T15:41:34.827Z,100181.47
2022-09-07T15:44:01.196Z,100173.44
2022-09-07T15:46:27.353Z,100183.88
2022-09-07T15:48:53.557Z,100185.78
2022-09-07T15:54:11.391Z,100195.63
2022-09-07T15:56:38.849Z,100191.44
2022-09-07T15:59:05.355Z,100199.28
2022-09-07T16:04:17.688Z,100197.50
2022-09-07T16:06:43.924Z,100192.31
2022-09-07T16:09:10.032Z,100188.69
2022-09-07T16:11:36.161Z,100191.16
2022-09-07T16:14:02.348Z,100188.94
2022-09-07T16:17:25.733Z,100191.84
2022-09-07T16:19:15.248Z,100192.19
2022-09-07T16:21:41.559Z,100195.03
2022-09-07T16:24:07.729Z,100187.28
2022-09-07T16:26:33.857Z,100189.09
2022-09-07T16:29:01.471Z,100199.34
2022-09-07T16:31:27.824Z,100203.63
2022-09-07T16:33:54.007Z,100216.88
2022-09-07T16:36:20.150Z,100218.66
2022-09-07T16:38:46.350Z,100219.69
2022-09-07T16:41:12.762Z,100218.72
2022-09-07T16:43:38.917Z,100214.28
2022-09-07T16:46:05.143Z,100214.44
2022-09-07T16:48:31.458Z,100209.97
2022-09-07T16:51:01.984Z,100198.66
2022-09-07T16:53:28.589Z,100194.50
2022-09-07T16:55:54.764Z,100201.19
2022-09-07T16:58:36.966Z,100195.19
2022-09-07T17:01:03.777Z,100196.38
2022-09-07T17:03:30.218Z,100199.94
2022-09-07T17:05:56.432Z,100184.50
2022-09-07T17:08:22.668Z,100173.44
2022-09-07T17:10:48.800Z,100178.44
2022-09-07T17:13:14.912Z,100180.28
2022-09-07T17:15:41.053Z,100175.44
2022-09-07T17:18:07.161Z,100168.75
2022-09-07T17:20:33.291Z,100176.88
2022-09-07T17:23:00.944Z,100171.69
2022-09-07T17:25:27.227Z,100179.50
2022-09-07T17:27:53.377Z,100181.16
2022-09-07T17:30:20.749Z,100187.09
2022-09-07T17:32:47.158Z,100189.38
2022-09-07T17:35:13.397Z,100182.56
2022-09-07T17:37:39.514Z,100182.06
2022-09-07T17:40:05.954Z,100181.34
2022-09-07T17:45:18.654Z,100172.66
2022-09-07T17:47:44.776Z,100185.75
2022-09-07T17:50:10.909Z,100183.25
2022-09-07T17:52:40.326Z,100180.19
2022-09-07T17:55:07.357Z,100182.38
2022-09-07T17:57:33.517Z,100180.03
2022-09-07T18:00:15.054Z,100181.50
2022-09-07T18:02:41.194Z,100181.63
2022-09-07T18:05:07.824Z,100184.41
2022-09-07T18:07:33.997Z,100187.97
2022-09-07T18:10:00.177Z,100191.28
2022-09-07T18:12:26.304Z,100187.41
2022-09-07T18:14:52.486Z,100188.84
2022-09-07T18:17:18.618Z,100199.78
2022-09-07T18:19:44.732Z,100219.25
2022-09-07T18:22:10.873Z,100235.38
2022-09-07T18:24:37.241Z,100239.00
2022-09-07T18:27:03.407Z,100238.22
2022-09-07T18:29:33.588Z,100232.66
2022-09-07T18:32:00.420Z,100251.28
2022-09-07T18:34:26.642Z,100243.56
2022-09-07T18:36:52.768Z,100236.59
2022-09-07T18:39:18.928Z,100230.25
2022-09-07T18:41:45.061Z,100246.41
2022-09-07T18:46:57.347Z,100240.91
2022-09-07T18:49:24.792Z,100233.25
2022-09-07T18:54:37.439Z,100253.63
2022-09-07T18:57:03.592Z,100257.25
2022-09-07T18:59:29.976Z,100246.25
2022-09-07T19:02:00.107Z,100240.38
2022-09-07T19:05:49.775Z,100228.13
2022-09-07T19:07:16.057Z,100214.59
2022-09-07T19:09:42.170Z,100219.34
2022-09-07T19:12:08.506Z,100211.13
2022-09-07T19:14:34.650Z,100204.69
2022-09-07T19:17:00.778Z,100194.94
2022-09-07T19:19:26.935Z,100186.88
2022-09-07T19:21:53.083Z,100183.22
2022-09-07T19:24:19.213Z,100185.44
2022-09-07T19:26:48.182Z,100194.81
2022-09-07T19:29:14.309Z,100196.03
2022-09-07T19:31:40.483Z,100196.47
2022-09-07T19:34:06.864Z,100193.97
2022-09-07T19:36:33.021Z,100187.94
2022-09-07T19:39:01.420Z,100184.53
2022-09-07T19:41:36.470Z,100176.06
2022-09-07T19:44:03.879Z,100166.44
2022-09-07T19:46:30.044Z,100158.91
2022-09-07T19:48:56.250Z,100159.19
2022-09-07T19:51:22.400Z,100152.19
2022-09-07T19:53:48.609Z,100135.09
2022-09-07T19:56:14.745Z,100128.38
2022-09-07T19:58:40.880Z,100120.16
2022-09-07T20:01:07.086Z,100119.91
2022-09-07T20:03:33.550Z,100123.53
2022-09-07T20:05:59.894Z,100129.50
2022-09-07T20:08:26.052Z,100123.69
2022-09-07T20:10:52.185Z,100122.13
2022-09-07T20:13:18.291Z,100112.97
2022-09-07T20:15:44.428Z,100113.50
2022-09-07T20:18:10.556Z,100106.81
2022-09-07T20:20:36.700Z,100096.94
2022-09-07T20:23:02.845Z,100098.44
2022-09-07T20:25:29.092Z,100096.22
2022-09-07T20:27:55.205Z,100083.41
2022-09-07T20:30:21.366Z,100075.75
2022-09-07T20:32:47.491Z,100067.25
2022-09-07T20:35:13.629Z,100062.78
2022-09-07T20:37:39.746Z,100053.88
2022-09-07T20:40:05.962Z,100049.13
2022-09-07T20:42:32.176Z,100060.72
2022-09-07T20:44:58.324Z,100051.91
2022-09-07T20:47:24.441Z,100050.81
2022-09-07T20:49:50.609Z,100057.91
2022-09-07T20:52:16.756Z,100069.34
2022-09-07T20:54:42.865Z,100072.81
2022-09-07T20:57:09.016Z,100072.66
2022-09-07T20:59:35.173Z,100073.09
2022-09-07T21:02:01.351Z,100074.47
2022-09-07T21:04:27.490Z,100078.38
2022-09-07T21:06:53.627Z,100076.41
2022-09-07T21:09:19.773Z,100078.59
2022-09-07T21:11:49.305Z,100080.31
2022-09-07T21:14:16.379Z,100075.97
2022-09-07T21:16:42.639Z,100078.91
2022-09-07T21:19:08.826Z,100070.81
2022-09-07T21:21:38.350Z,100073.75
2022-09-07T21:24:05.219Z,100072.75
2022-09-07T21:26:31.346Z,100082.53
2022-09-07T21:28:57.472Z,100090.75
2022-09-07T21:31:23.689Z,100098.09
2022-09-07T21:33:49.900Z,100109.41
2022-09-07T21:36:16.005Z,100108.53
2022-09-07T21:38:42.133Z,100108.25
2022-09-07T21:41:08.275Z,100108.25
2022-09-07T21:43:34.454Z,100112.38
2022-09-07T21:46:01.442Z,100112.22
2022-09-07T21:48:29.418Z,100116.38
2022-09-07T21:50:55.566Z,100120.94
2022-09-07T21:53:21.668Z,100116.91
2022-09-07T21:55:47.797Z,100105.63
2022-09-07T21:58:13.947Z,100096.03
2022-09-07T22:00:40.161Z,100102.16
2022-09-07T22:03:06.399Z,100102.03
2022-09-07T22:05:32.514Z,100097.88
2022-09-07T22:07:58.662Z,100109.00
2022-09-07T22:10:24.797Z,100100.00
2022-09-07T22:12:50.987Z,100098.03
2022-09-07T22:15:17.104Z,100090.78
2022-09-07T22:17:46.190Z,100094.94
2022-09-07T22:20:12.629Z,100093.16
2022-09-07T22:22:38.743Z,100094.13
2022-09-07T22:25:04.890Z,100080.63
2022-09-07T22:27:31.028Z,100079.63
2022-09-07T22:29:57.154Z,100076.16
2022-09-07T22:32:23.301Z,100082.56
2022-09-07T22:34:49.428Z,100074.91
2022-09-07T22:37:15.546Z,100064.47
2022-09-07T22:39:41.735Z,100064.47
2022-09-07T22:42:07.883Z,100057.34
2022-09-07T22:44:34.005Z,100053.03
2022-09-07T22:47:00.232Z,100055.38
2022-09-07T22:49:26.528Z,100056.34
2022-09-07T22:51:52.674Z,100047.97
2022-09-07T22:54:18.793Z,100052.81
2022-09-07T22:56:44.894Z,100053.09
2022-09-07T22:59:11.017Z,100064.66
2022-09-07T23:01:37.152Z,100059.38
2022-09-07T23:04:03.563Z,100067.28
2022-09-07T23:06:29.812Z,100073.53
2022-09-07T23:08:55.960Z,100092.16
2022-09-07T23:11:22.075Z,100091.72
2022-09-07T23:13:48.278Z,100095.34
2022-09-07T23:16:14.524Z,100084.34
2022-09-07T23:18:40.736Z,100086.41
2022-09-07T23:21:06.922Z,100105.59
2022-09-07T23:23:33.221Z,100134.44
2022-09-07T23:25:59.461Z,100149.44
2022-09-07T23:28:25.655Z,100151.19
2022-09-07T23:30:51.868Z,100137.19
2022-09-07T23:33:18.080Z,100121.59
2022-09-07T23:35:44.302Z,100133.56
2022-09-07T23:38:10.481Z,100137.50
2022-09-07T23:40:36.681Z,100131.13
2022-09-07T23:43:02.880Z,100128.47
2022-09-07T23:45:29.056Z,100133.84
2022-09-07T23:47:55.258Z,100135.03
2022-09-07T23:50:21.476Z,100118.81
2022-09-07T23:52:47.675Z,100115.47
2022-09-07T23:55:13.875Z,100111.91
2022-09-07T23:57:40.091Z,100104.25
